STV1 KIAD-EGBB
Flight info
| Callsign | STV1 |
|---|---|
| Flight time | 6h 42m |
| Altitude | 35000 |
| Route | JCOBY4 SWANN DCT BROSS Q419 RBV Q22 FOXWD DCT BRADD DCT NICSO/M080F380 DCT 48N050W 50N040W 52N030W 54N020W DCT DOGAL DCT BEXET/N0454F390 DCT DEXEN UY124 AMPIT |
| Aircraft | CL60/M-SADE3FGHIJ3J4J7P2RWXY/HB1D1 |
Departure
| Time | 2026-05-04 14:45 |
|---|---|
| Airport | Washington Dulles International Airport (KIAD) |
Arrival
| Time | 2026-05-04 21:27 |
|---|---|
| Airport | Birmingham Airport (EGBB) |
| Time | Latitude | Longitude | Altitude | Speed | Heading |
|---|---|---|---|---|---|
| 2026-05-04 14:14 | 38.95552 | -77.44198 | 289 ft | 0 kts | 88° |
| 2026-05-04 14:36 | 38.95551 | -77.44167 | 290 ft | 6 kts | 99° |
| 2026-05-04 14:36 | 38.95536 | -77.44105 | 291 ft | 8 kts | 113° |
| 2026-05-04 14:36 | 38.95503 | -77.44024 | 292 ft | 11 kts | 121° |
| 2026-05-04 14:37 | 38.95439 | -77.43961 | 293 ft | 13 kts | 180° |
| 2026-05-04 14:37 | 38.95330 | -77.43963 | 293 ft | 18 kts | 181° |
| 2026-05-04 14:37 | 38.95203 | -77.43964 | 293 ft | 18 kts | 180° |
| 2026-05-04 14:37 | 38.95072 | -77.43968 | 294 ft | 18 kts | 181° |
| 2026-05-04 14:38 | 38.94948 | -77.43961 | 297 ft | 17 kts | 181° |
| 2026-05-04 14:38 | 38.94821 | -77.43973 | 296 ft | 18 kts | 185° |
| 2026-05-04 14:38 | 38.94694 | -77.43970 | 299 ft | 17 kts | 184° |
| 2026-05-04 14:38 | 38.94573 | -77.43974 | 300 ft | 17 kts | 181° |
| 2026-05-04 14:39 | 38.94447 | -77.43976 | 300 ft | 18 kts | 182° |
| 2026-05-04 14:39 | 38.94325 | -77.43979 | 302 ft | 17 kts | 181° |
| 2026-05-04 14:39 | 38.94191 | -77.43980 | 303 ft | 19 kts | 180° |
| 2026-05-04 14:40 | 38.94106 | -77.44235 | 301 ft | 20 kts | 270° |
| 2026-05-04 14:40 | 38.94107 | -77.44429 | 299 ft | 22 kts | 271° |
| 2026-05-04 14:40 | 38.94109 | -77.44632 | 297 ft | 24 kts | 271° |
| 2026-05-04 14:40 | 38.94111 | -77.44852 | 296 ft | 24 kts | 271° |
| 2026-05-04 14:41 | 38.94113 | -77.45077 | 295 ft | 25 kts | 271° |
| 2026-05-04 14:41 | 38.94116 | -77.45312 | 293 ft | 27 kts | 271° |
| 2026-05-04 14:41 | 38.94065 | -77.45616 | 292 ft | 13 kts | 180° |
| 2026-05-04 14:42 | 38.93791 | -77.45622 | 289 ft | 21 kts | 182° |
| 2026-05-04 14:42 | 38.93668 | -77.45558 | 287 ft | 19 kts | 131° |
| 2026-05-04 14:42 | 38.93563 | -77.45509 | 284 ft | 18 kts | 201° |
| 2026-05-04 14:43 | 38.93438 | -77.45569 | 282 ft | 19 kts | 201° |
| 2026-05-04 14:43 | 38.93373 | -77.45632 | 281 ft | 8 kts | 283° |
| 2026-05-04 14:43 | 38.93376 | -77.45642 | 281 ft | 0 kts | 291° |
| 2026-05-04 14:44 | 38.93400 | -77.45721 | 281 ft | 32 kts | 290° |
| 2026-05-04 14:44 | 38.93565 | -77.46285 | 288 ft | 100 kts | 290° |
| 2026-05-04 14:44 | 38.93880 | -77.47367 | 297 ft | 152 kts | 289° |
| 2026-05-04 14:44 | 38.94268 | -77.48706 | 578 ft | 167 kts | 287° |
| 2026-05-04 14:45 | 38.94660 | -77.50125 | 1096 ft | 175 kts | 290° |
| 2026-05-04 14:45 | 38.95314 | -77.51500 | 1622 ft | 186 kts | 314° |
| 2026-05-04 14:45 | 38.96463 | -77.52241 | 2305 ft | 189 kts | 345° |
| 2026-05-04 14:45 | 38.97773 | -77.52234 | 2893 ft | 197 kts | 13° |
| 2026-05-04 14:46 | 38.99030 | -77.51458 | 3325 ft | 214 kts | 35° |
| 2026-05-04 14:46 | 39.00117 | -77.49996 | 3581 ft | 243 kts | 57° |
| 2026-05-04 14:46 | 39.00915 | -77.47995 | 4092 ft | 257 kts | 65° |
| 2026-05-04 14:46 | 39.01658 | -77.45893 | 4899 ft | 260 kts | 64° |
| 2026-05-04 14:47 | 39.02438 | -77.43819 | 5671 ft | 264 kts | 61° |
| 2026-05-04 14:47 | 39.03298 | -77.41715 | 6435 ft | 268 kts | 59° |
| 2026-05-04 14:47 | 39.04168 | -77.39622 | 7200 ft | 271 kts | 59° |
| 2026-05-04 14:47 | 39.05059 | -77.37480 | 7973 ft | 273 kts | 59° |
| 2026-05-04 14:48 | 39.05973 | -77.35287 | 8503 ft | 288 kts | 59° |
| 2026-05-04 14:48 | 39.06932 | -77.32990 | 9048 ft | 299 kts | 59° |
| 2026-05-04 14:48 | 39.07767 | -77.30490 | 9690 ft | 309 kts | 77° |
| 2026-05-04 14:48 | 39.08049 | -77.27732 | 10278 ft | 319 kts | 82° |
| 2026-05-04 14:49 | 39.08300 | -77.24744 | 10296 ft | 348 kts | 82° |
| 2026-05-04 14:49 | 39.08574 | -77.21594 | 10507 ft | 365 kts | 82° |
| 2026-05-04 14:49 | 39.08863 | -77.18292 | 10982 ft | 373 kts | 82° |
| 2026-05-04 14:49 | 39.09154 | -77.14980 | 11566 ft | 378 kts | 82° |
| 2026-05-04 14:50 | 39.09452 | -77.11603 | 12142 ft | 381 kts | 82° |
| 2026-05-04 14:50 | 39.09750 | -77.08240 | 12736 ft | 384 kts | 81° |
| 2026-05-04 14:50 | 39.10055 | -77.04803 | 13323 ft | 387 kts | 81° |
| 2026-05-04 14:50 | 39.10362 | -77.01347 | 13858 ft | 390 kts | 81° |
| 2026-05-04 14:51 | 39.10634 | -76.97894 | 14373 ft | 395 kts | 83° |
| 2026-05-04 14:51 | 39.10783 | -76.94357 | 14960 ft | 397 kts | 86° |
| 2026-05-04 14:51 | 39.10856 | -76.90782 | 15478 ft | 400 kts | 86° |
| 2026-05-04 14:51 | 39.10928 | -76.87245 | 15992 ft | 402 kts | 86° |
| 2026-05-04 14:52 | 39.11005 | -76.83595 | 16540 ft | 408 kts | 86° |
| 2026-05-04 14:52 | 39.11082 | -76.79971 | 17246 ft | 411 kts | 86° |
| 2026-05-04 14:52 | 39.11161 | -76.76280 | 17944 ft | 413 kts | 86° |
| 2026-05-04 14:52 | 39.11240 | -76.72575 | 18592 ft | 417 kts | 86° |
| 2026-05-04 14:53 | 39.11320 | -76.68857 | 19222 ft | 420 kts | 86° |
| 2026-05-04 14:53 | 39.11401 | -76.65113 | 19845 ft | 423 kts | 86° |
| 2026-05-04 14:53 | 39.11482 | -76.61301 | 20443 ft | 426 kts | 85° |
| 2026-05-04 14:53 | 39.11563 | -76.57526 | 21044 ft | 429 kts | 86° |
| 2026-05-04 14:54 | 39.11647 | -76.53682 | 21594 ft | 432 kts | 85° |
| 2026-05-04 14:54 | 39.11946 | -76.49841 | 22123 ft | 433 kts | 78° |
| 2026-05-04 14:54 | 39.12382 | -76.45991 | 22626 ft | 436 kts | 78° |
| 2026-05-04 14:54 | 39.12814 | -76.42141 | 23140 ft | 439 kts | 78° |
| 2026-05-04 14:55 | 39.13252 | -76.38227 | 23626 ft | 443 kts | 78° |
| 2026-05-04 14:55 | 39.13685 | -76.34347 | 24108 ft | 445 kts | 78° |
| 2026-05-04 14:55 | 39.14128 | -76.30372 | 24547 ft | 449 kts | 78° |
| 2026-05-04 14:55 | 39.14572 | -76.26372 | 24941 ft | 453 kts | 79° |
| 2026-05-04 14:56 | 39.15017 | -76.22375 | 25310 ft | 457 kts | 78° |
| 2026-05-04 14:56 | 39.15479 | -76.18339 | 25733 ft | 459 kts | 78° |
| 2026-05-04 14:56 | 39.15947 | -76.14253 | 26098 ft | 462 kts | 78° |
| 2026-05-04 14:56 | 39.16414 | -76.10163 | 26412 ft | 466 kts | 79° |
| 2026-05-04 14:57 | 39.16888 | -76.06004 | 26785 ft | 468 kts | 78° |
| 2026-05-04 14:57 | 39.17362 | -76.01831 | 27079 ft | 472 kts | 79° |
| 2026-05-04 14:57 | 39.17833 | -75.97669 | 27439 ft | 473 kts | 79° |
| 2026-05-04 14:57 | 39.18373 | -75.93439 | 27703 ft | 474 kts | 73° |
| 2026-05-04 14:58 | 39.19465 | -75.89509 | 27991 ft | 469 kts | 59° |
| 2026-05-04 14:58 | 39.21265 | -75.86004 | 28323 ft | 461 kts | 45° |
| 2026-05-04 14:58 | 39.23545 | -75.83160 | 28557 ft | 458 kts | 36° |
| 2026-05-04 14:58 | 39.26007 | -75.80454 | 28795 ft | 461 kts | 36° |
| 2026-05-04 14:59 | 39.28423 | -75.77788 | 29138 ft | 461 kts | 36° |
| 2026-05-04 14:59 | 39.30866 | -75.75093 | 29348 ft | 464 kts | 36° |
| 2026-05-04 14:59 | 39.35784 | -75.69669 | 29836 ft | 466 kts | 36° |
| 2026-05-04 15:00 | 39.38242 | -75.66959 | 30010 ft | 469 kts | 36° |
| 2026-05-04 15:00 | 39.40733 | -75.64211 | 30239 ft | 470 kts | 36° |
| 2026-05-04 15:00 | 39.43212 | -75.61475 | 30461 ft | 471 kts | 36° |
| 2026-05-04 15:01 | 39.48192 | -75.55973 | 30935 ft | 471 kts | 36° |
| 2026-05-04 15:01 | 39.50692 | -75.53208 | 31115 ft | 471 kts | 35° |
| 2026-05-04 15:01 | 39.53181 | -75.50454 | 31360 ft | 470 kts | 35° |
| 2026-05-04 15:01 | 39.55661 | -75.47707 | 31537 ft | 469 kts | 36° |
| 2026-05-04 15:02 | 39.58138 | -75.44965 | 31703 ft | 470 kts | 35° |
| 2026-05-04 15:02 | 39.60601 | -75.42235 | 31852 ft | 471 kts | 35° |
| 2026-05-04 15:02 | 39.63078 | -75.39487 | 31976 ft | 473 kts | 35° |
| 2026-05-04 15:02 | 39.65587 | -75.36700 | 32111 ft | 473 kts | 35° |
| 2026-05-04 15:03 | 39.68074 | -75.33936 | 32260 ft | 474 kts | 36° |
| 2026-05-04 15:03 | 39.70605 | -75.31122 | 32378 ft | 475 kts | 36° |
| 2026-05-04 15:03 | 39.73100 | -75.28344 | 32516 ft | 475 kts | 36° |
| 2026-05-04 15:03 | 39.75612 | -75.25546 | 32651 ft | 475 kts | 36° |
| 2026-05-04 15:04 | 39.78103 | -75.22755 | 32837 ft | 476 kts | 37° |
| 2026-05-04 15:04 | 39.80478 | -75.19778 | 33073 ft | 478 kts | 42° |
| 2026-05-04 15:04 | 39.82692 | -75.16547 | 33320 ft | 477 kts | 45° |
| 2026-05-04 15:04 | 39.84831 | -75.13326 | 33493 ft | 476 kts | 45° |
| 2026-05-04 15:05 | 39.89181 | -75.06794 | 33494 ft | 481 kts | 45° |
| 2026-05-04 15:05 | 39.91380 | -75.03495 | 33664 ft | 481 kts | 45° |
| 2026-05-04 15:05 | 39.93545 | -75.00243 | 33811 ft | 481 kts | 45° |
| 2026-05-04 15:06 | 39.95749 | -74.96930 | 33946 ft | 481 kts | 45° |
| 2026-05-04 15:06 | 39.97835 | -74.93512 | 34066 ft | 484 kts | 50° |
| 2026-05-04 15:06 | 39.99702 | -74.89915 | 34178 ft | 485 kts | 53° |
| 2026-05-04 15:07 | 40.03396 | -74.82567 | 34354 ft | 486 kts | 53° |
| 2026-05-04 15:07 | 40.07109 | -74.75198 | 34435 ft | 488 kts | 53° |
| 2026-05-04 15:08 | 40.10837 | -74.67799 | 34655 ft | 489 kts | 53° |
| 2026-05-04 15:08 | 40.12685 | -74.64132 | 34865 ft | 486 kts | 53° |
| 2026-05-04 15:08 | 40.14555 | -74.60418 | 34948 ft | 486 kts | 53° |
| 2026-05-04 15:09 | 40.18277 | -74.53070 | 35007 ft | 489 kts | 51° |
| 2026-05-04 15:09 | 40.22861 | -74.46655 | 35042 ft | 481 kts | 35° |
| 2026-05-04 15:10 | 40.30559 | -74.38361 | 35006 ft | 477 kts | 34° |
| 2026-05-04 15:11 | 40.38234 | -74.30092 | 34987 ft | 476 kts | 35° |
| 2026-05-04 15:11 | 40.43316 | -74.24612 | 35006 ft | 476 kts | 35° |
| 2026-05-04 15:12 | 40.48457 | -74.19065 | 35029 ft | 477 kts | 35° |
| 2026-05-04 15:12 | 40.53596 | -74.13513 | 35032 ft | 479 kts | 35° |
| 2026-05-04 15:13 | 40.58702 | -74.07989 | 35026 ft | 477 kts | 35° |
| 2026-05-04 15:13 | 40.63844 | -74.02417 | 35002 ft | 478 kts | 35° |
| 2026-05-04 15:14 | 40.68941 | -73.96883 | 35009 ft | 478 kts | 35° |
| 2026-05-04 15:14 | 40.74094 | -73.91281 | 34991 ft | 480 kts | 35° |
| 2026-05-04 15:15 | 40.79208 | -73.85709 | 35003 ft | 479 kts | 35° |
| 2026-05-04 15:15 | 40.84324 | -73.80068 | 34988 ft | 480 kts | 38° |
| 2026-05-04 15:16 | 40.88798 | -73.73431 | 34983 ft | 488 kts | 51° |
| 2026-05-04 15:16 | 40.90724 | -73.69785 | 34990 ft | 488 kts | 52° |
| 2026-05-04 15:17 | 40.96534 | -73.58724 | 35007 ft | 489 kts | 51° |
| 2026-05-04 15:17 | 41.02357 | -73.47644 | 34994 ft | 489 kts | 51° |
| 2026-05-04 15:18 | 41.06231 | -73.40266 | 34992 ft | 489 kts | 51° |
| 2026-05-04 15:19 | 41.12015 | -73.29232 | 34978 ft | 488 kts | 52° |
| 2026-05-04 15:19 | 41.17804 | -73.18162 | 34989 ft | 487 kts | 52° |
| 2026-05-04 15:20 | 41.21652 | -73.10788 | 34968 ft | 488 kts | 52° |
| 2026-05-04 15:20 | 41.25521 | -73.03355 | 34995 ft | 491 kts | 52° |
| 2026-05-04 15:21 | 41.29370 | -72.95893 | 34970 ft | 490 kts | 53° |
| 2026-05-04 15:22 | 41.34642 | -72.84273 | 34971 ft | 494 kts | 56° |
| 2026-05-04 15:22 | 41.39857 | -72.72550 | 34989 ft | 492 kts | 56° |
| 2026-05-04 15:23 | 41.43357 | -72.64677 | 34968 ft | 495 kts | 56° |
| 2026-05-04 15:23 | 41.46854 | -72.56798 | 34971 ft | 495 kts | 56° |
| 2026-05-04 15:24 | 41.53822 | -72.41062 | 34963 ft | 495 kts | 56° |
| 2026-05-04 15:25 | 41.57291 | -72.33202 | 35001 ft | 494 kts | 57° |
| 2026-05-04 15:26 | 41.62521 | -72.21322 | 34964 ft | 494 kts | 57° |
| 2026-05-04 15:26 | 41.67731 | -72.09444 | 34926 ft | 495 kts | 57° |
| 2026-05-04 15:27 | 41.72922 | -71.97564 | 34956 ft | 497 kts | 57° |
| 2026-05-04 15:28 | 41.78139 | -71.85580 | 34970 ft | 498 kts | 57° |
| 2026-05-04 15:29 | 41.82744 | -71.73150 | 34958 ft | 501 kts | 65° |
| 2026-05-04 15:30 | 41.91903 | -71.42876 | 34937 ft | 502 kts | 65° |
| 2026-05-04 15:31 | 41.95815 | -71.29894 | 34939 ft | 501 kts | 66° |
| 2026-05-04 15:32 | 42.02310 | -71.08230 | 34927 ft | 503 kts | 66° |
| 2026-05-04 15:34 | 42.08801 | -70.86417 | 34944 ft | 503 kts | 66° |
| 2026-05-04 15:34 | 42.12683 | -70.73289 | 34913 ft | 507 kts | 66° |
| 2026-05-04 15:35 | 42.16562 | -70.60107 | 34932 ft | 507 kts | 66° |
| 2026-05-04 15:36 | 42.20430 | -70.46892 | 34909 ft | 507 kts | 67° |
| 2026-05-04 15:36 | 42.23006 | -70.38058 | 34908 ft | 509 kts | 66° |
| 2026-05-04 15:37 | 42.25587 | -70.29172 | 34906 ft | 509 kts | 68° |
| 2026-05-04 15:37 | 42.28152 | -70.20312 | 34915 ft | 509 kts | 68° |
| 2026-05-04 15:38 | 42.30728 | -70.11384 | 34872 ft | 509 kts | 68° |
| 2026-05-04 15:38 | 42.33281 | -70.02505 | 34913 ft | 511 kts | 68° |
| 2026-05-04 15:39 | 42.35829 | -69.93608 | 34885 ft | 512 kts | 68° |
| 2026-05-04 15:40 | 42.39668 | -69.80151 | 34919 ft | 511 kts | 68° |
| 2026-05-04 15:40 | 42.42197 | -69.71243 | 34919 ft | 510 kts | 68° |
| 2026-05-04 15:41 | 42.44739 | -69.62261 | 34914 ft | 510 kts | 68° |
| 2026-05-04 15:41 | 42.47259 | -69.53320 | 34902 ft | 511 kts | 68° |
| 2026-05-04 15:42 | 42.49784 | -69.44336 | 34889 ft | 513 kts | 68° |
| 2026-05-04 15:42 | 42.52295 | -69.35363 | 34894 ft | 512 kts | 68° |
| 2026-05-04 15:43 | 42.54816 | -69.26325 | 34911 ft | 513 kts | 69° |
| 2026-05-04 15:43 | 42.57316 | -69.17326 | 34941 ft | 513 kts | 69° |
| 2026-05-04 15:44 | 42.59816 | -69.08296 | 34914 ft | 514 kts | 69° |
| 2026-05-04 15:44 | 42.62317 | -68.99229 | 34897 ft | 515 kts | 69° |
| 2026-05-04 15:45 | 42.64816 | -68.90134 | 34904 ft | 515 kts | 69° |
| 2026-05-04 15:45 | 42.67303 | -68.81049 | 34898 ft | 515 kts | 69° |
| 2026-05-04 15:46 | 42.69794 | -68.71918 | 34895 ft | 516 kts | 69° |
| 2026-05-04 15:46 | 42.72258 | -68.62849 | 34895 ft | 516 kts | 69° |
| 2026-05-04 15:47 | 42.74741 | -68.53677 | 34906 ft | 517 kts | 69° |
| 2026-05-04 15:47 | 42.77208 | -68.44527 | 34892 ft | 517 kts | 69° |
| 2026-05-04 15:48 | 42.79668 | -68.35373 | 34896 ft | 518 kts | 69° |
| 2026-05-04 15:48 | 42.83345 | -68.21619 | 34896 ft | 517 kts | 70° |
| 2026-05-04 15:49 | 42.85802 | -68.12387 | 34902 ft | 519 kts | 70° |
| 2026-05-04 15:49 | 42.88241 | -68.03186 | 34889 ft | 519 kts | 70° |
| 2026-05-04 15:50 | 42.90688 | -67.93921 | 34899 ft | 519 kts | 70° |
| 2026-05-04 15:50 | 42.93116 | -67.84689 | 34870 ft | 520 kts | 70° |
| 2026-05-04 15:51 | 42.95530 | -67.75473 | 34880 ft | 521 kts | 70° |
| 2026-05-04 15:51 | 42.97950 | -67.66200 | 34874 ft | 521 kts | 70° |
| 2026-05-04 15:52 | 43.00362 | -67.56922 | 34904 ft | 520 kts | 70° |
| 2026-05-04 15:52 | 43.02770 | -67.47622 | 34874 ft | 522 kts | 70° |
| 2026-05-04 15:53 | 43.05179 | -67.38283 | 34867 ft | 523 kts | 70° |
| 2026-05-04 15:53 | 43.07595 | -67.28877 | 34875 ft | 522 kts | 70° |
| 2026-05-04 15:54 | 43.09974 | -67.19580 | 34870 ft | 522 kts | 71° |
| 2026-05-04 15:54 | 43.12353 | -67.10241 | 34896 ft | 521 kts | 70° |
| 2026-05-04 15:55 | 43.14760 | -67.00885 | 34862 ft | 521 kts | 68° |
| 2026-05-04 15:55 | 43.17950 | -66.92079 | 34876 ft | 520 kts | 61° |
| 2026-05-04 15:56 | 43.21299 | -66.83295 | 34865 ft | 520 kts | 61° |
| 2026-05-04 15:56 | 43.24624 | -66.74540 | 34908 ft | 520 kts | 61° |
| 2026-05-04 15:57 | 43.27961 | -66.65724 | 34833 ft | 521 kts | 61° |
| 2026-05-04 15:57 | 43.31276 | -66.56933 | 34863 ft | 521 kts | 61° |
| 2026-05-04 15:58 | 43.34589 | -66.48119 | 34893 ft | 521 kts | 61° |
| 2026-05-04 15:58 | 43.37899 | -66.39281 | 34865 ft | 521 kts | 61° |
| 2026-05-04 15:59 | 43.41193 | -66.30459 | 34874 ft | 521 kts | 62° |
| 2026-05-04 15:59 | 43.44486 | -66.21613 | 34857 ft | 523 kts | 62° |
| 2026-05-04 16:00 | 43.47782 | -66.12727 | 34893 ft | 522 kts | 62° |
| 2026-05-04 16:00 | 43.51059 | -66.03862 | 34884 ft | 522 kts | 62° |
| 2026-05-04 16:01 | 43.54330 | -65.94987 | 34863 ft | 522 kts | 62° |
| 2026-05-04 16:01 | 43.57613 | -65.86050 | 34872 ft | 523 kts | 62° |
| 2026-05-04 16:02 | 43.60887 | -65.77109 | 34865 ft | 522 kts | 62° |
| 2026-05-04 16:03 | 43.65754 | -65.63763 | 34852 ft | 523 kts | 62° |
| 2026-05-04 16:03 | 43.69010 | -65.54798 | 34859 ft | 523 kts | 62° |
| 2026-05-04 16:04 | 43.72239 | -65.45880 | 34848 ft | 523 kts | 62° |
| 2026-05-04 16:04 | 43.77090 | -65.32423 | 34840 ft | 521 kts | 62° |
| 2026-05-04 16:05 | 43.80294 | -65.23501 | 34825 ft | 521 kts | 62° |
| 2026-05-04 16:06 | 43.85128 | -65.09985 | 34838 ft | 522 kts | 62° |
| 2026-05-04 16:07 | 43.91519 | -64.92011 | 34842 ft | 522 kts | 62° |
| 2026-05-04 16:08 | 43.97890 | -64.73975 | 34818 ft | 524 kts | 62° |
| 2026-05-04 16:09 | 44.05821 | -64.51354 | 34841 ft | 521 kts | 62° |
| 2026-05-04 16:10 | 44.12115 | -64.33269 | 34782 ft | 521 kts | 63° |
| 2026-05-04 16:11 | 44.18393 | -64.15107 | 34781 ft | 522 kts | 63° |
| 2026-05-04 16:12 | 44.27753 | -63.87800 | 34797 ft | 521 kts | 63° |
| 2026-05-04 16:13 | 44.33948 | -63.69574 | 34761 ft | 519 kts | 63° |
| 2026-05-04 16:14 | 44.40082 | -63.51405 | 34737 ft | 519 kts | 63° |
| 2026-05-04 16:16 | 44.47709 | -63.28641 | 34739 ft | 519 kts | 64° |
| 2026-05-04 16:17 | 44.55274 | -63.05866 | 34756 ft | 518 kts | 64° |
| 2026-05-04 16:18 | 44.61301 | -62.87581 | 34731 ft | 517 kts | 64° |
| 2026-05-04 16:19 | 44.68765 | -62.64761 | 34743 ft | 517 kts | 64° |
| 2026-05-04 16:20 | 44.76185 | -62.41881 | 34745 ft | 516 kts | 64° |
| 2026-05-04 16:22 | 44.83551 | -62.18967 | 34727 ft | 515 kts | 65° |
| 2026-05-04 16:23 | 44.92355 | -61.91319 | 34666 ft | 520 kts | 65° |
| 2026-05-04 16:25 | 45.01103 | -61.63551 | 34699 ft | 516 kts | 65° |
| 2026-05-04 16:26 | 45.11198 | -61.31133 | 34662 ft | 516 kts | 66° |
| 2026-05-04 16:28 | 45.18349 | -61.07925 | 34668 ft | 515 kts | 66° |
| 2026-05-04 16:29 | 45.28246 | -60.75450 | 34670 ft | 516 kts | 66° |
| 2026-05-04 16:31 | 45.35300 | -60.52052 | 34655 ft | 517 kts | 66° |
| 2026-05-04 16:32 | 45.43704 | -60.23891 | 34621 ft | 517 kts | 66° |
| 2026-05-04 16:33 | 45.49270 | -60.05067 | 34608 ft | 517 kts | 67° |
| 2026-05-04 16:34 | 45.53436 | -59.90887 | 34613 ft | 518 kts | 67° |
| 2026-05-04 16:35 | 45.61692 | -59.62545 | 34557 ft | 518 kts | 67° |
| 2026-05-04 16:36 | 45.65807 | -59.48294 | 34605 ft | 517 kts | 67° |
| 2026-05-04 16:37 | 45.69891 | -59.34074 | 34593 ft | 518 kts | 68° |
| 2026-05-04 16:38 | 45.75304 | -59.15096 | 34560 ft | 517 kts | 68° |
| 2026-05-04 16:39 | 45.82011 | -58.91377 | 34565 ft | 516 kts | 68° |
| 2026-05-04 16:40 | 45.87352 | -58.72323 | 34539 ft | 515 kts | 68° |
| 2026-05-04 16:41 | 45.93974 | -58.48490 | 34523 ft | 517 kts | 68° |
| 2026-05-04 16:43 | 46.00549 | -58.24593 | 34529 ft | 516 kts | 69° |
| 2026-05-04 16:43 | 46.04458 | -58.10275 | 34530 ft | 516 kts | 69° |
| 2026-05-04 16:45 | 46.12264 | -57.81420 | 34535 ft | 516 kts | 69° |
| 2026-05-04 16:46 | 46.18695 | -57.57383 | 34521 ft | 515 kts | 69° |
| 2026-05-04 16:47 | 46.23801 | -57.38120 | 34476 ft | 517 kts | 69° |
| 2026-05-04 16:48 | 46.28866 | -57.18860 | 34496 ft | 514 kts | 70° |
| 2026-05-04 16:49 | 46.33901 | -56.99552 | 34497 ft | 514 kts | 70° |
| 2026-05-04 16:50 | 46.38891 | -56.80263 | 34459 ft | 513 kts | 71° |
| 2026-05-04 16:51 | 46.42616 | -56.65754 | 34449 ft | 512 kts | 71° |
| 2026-05-04 16:52 | 46.47538 | -56.46440 | 34463 ft | 512 kts | 71° |
| 2026-05-04 16:53 | 46.51198 | -56.31976 | 34492 ft | 513 kts | 71° |
| 2026-05-04 16:54 | 46.56070 | -56.12577 | 34509 ft | 512 kts | 72° |
| 2026-05-04 16:55 | 46.63293 | -55.83506 | 34488 ft | 511 kts | 72° |
| 2026-05-04 16:56 | 46.69238 | -55.59291 | 34475 ft | 511 kts | 72° |
| 2026-05-04 16:57 | 46.72796 | -55.44677 | 34473 ft | 511 kts | 72° |
| 2026-05-04 16:58 | 46.77488 | -55.25251 | 34456 ft | 510 kts | 73° |
| 2026-05-04 17:00 | 46.84466 | -54.96040 | 34476 ft | 511 kts | 73° |
| 2026-05-04 17:01 | 46.90236 | -54.71592 | 34532 ft | 509 kts | 73° |
| 2026-05-04 17:02 | 46.94797 | -54.52066 | 34511 ft | 510 kts | 74° |
| 2026-05-04 17:03 | 46.98204 | -54.37365 | 34520 ft | 509 kts | 73° |
| 2026-05-04 17:03 | 47.01587 | -54.22669 | 34494 ft | 507 kts | 75° |
| 2026-05-04 17:04 | 47.06053 | -54.03110 | 34480 ft | 509 kts | 75° |
| 2026-05-04 17:05 | 47.10495 | -53.83473 | 34515 ft | 509 kts | 75° |
| 2026-05-04 17:06 | 47.13787 | -53.68808 | 34530 ft | 507 kts | 75° |
| 2026-05-04 17:07 | 47.16707 | -53.55709 | 34525 ft | 509 kts | 75° |
| 2026-05-04 17:07 | 47.19261 | -53.44183 | 34534 ft | 508 kts | 75° |
| 2026-05-04 17:08 | 47.22511 | -53.29425 | 34517 ft | 508 kts | 76° |
| 2026-05-04 17:09 | 47.24664 | -53.19591 | 34518 ft | 507 kts | 76° |
| 2026-05-04 17:09 | 47.26807 | -53.09752 | 34491 ft | 507 kts | 76° |
| 2026-05-04 17:10 | 47.32129 | -52.85121 | 34518 ft | 507 kts | 76° |
| 2026-05-04 17:11 | 47.34249 | -52.75223 | 34542 ft | 507 kts | 76° |
| 2026-05-04 17:12 | 47.37408 | -52.60394 | 34559 ft | 506 kts | 77° |
| 2026-05-04 17:13 | 47.42600 | -52.35774 | 34564 ft | 503 kts | 77° |
| 2026-05-04 17:14 | 47.46711 | -52.16063 | 34586 ft | 503 kts | 78° |
| 2026-05-04 17:15 | 47.49765 | -52.01298 | 34602 ft | 504 kts | 78° |
| 2026-05-04 17:16 | 47.54709 | -51.81910 | 34602 ft | 506 kts | 74° |
| 2026-05-04 17:17 | 47.59715 | -51.62571 | 34618 ft | 505 kts | 74° |
| 2026-05-04 17:18 | 47.64684 | -51.43184 | 34606 ft | 505 kts | 74° |
| 2026-05-04 17:19 | 47.69624 | -51.23731 | 34614 ft | 503 kts | 75° |
| 2026-05-04 17:20 | 47.74482 | -51.04423 | 34621 ft | 502 kts | 75° |
| 2026-05-04 17:20 | 47.78117 | -50.89866 | 34624 ft | 501 kts | 76° |
| 2026-05-04 17:21 | 47.82908 | -50.70530 | 34633 ft | 500 kts | 76° |
| 2026-05-04 17:22 | 47.85306 | -50.60783 | 34863 ft | 502 kts | 76° |
| 2026-05-04 17:23 | 47.88854 | -50.46291 | 35432 ft | 500 kts | 76° |
| 2026-05-04 17:23 | 47.90032 | -50.41459 | 35571 ft | 498 kts | 76° |
| 2026-05-04 17:23 | 47.92381 | -50.31792 | 35928 ft | 497 kts | 77° |
| 2026-05-04 17:24 | 47.93546 | -50.26979 | 36094 ft | 495 kts | 76° |
| 2026-05-04 17:24 | 47.97042 | -50.12471 | 36480 ft | 495 kts | 77° |
| 2026-05-04 17:25 | 47.98192 | -50.07684 | 36577 ft | 495 kts | 77° |
| 2026-05-04 17:25 | 48.00508 | -49.98064 | 36770 ft | 496 kts | 76° |
| 2026-05-04 17:26 | 48.02925 | -49.88476 | 37032 ft | 494 kts | 76° |
| 2026-05-04 17:26 | 48.06528 | -49.74100 | 37282 ft | 496 kts | 76° |
| 2026-05-04 17:27 | 48.08931 | -49.64467 | 37546 ft | 495 kts | 75° |
| 2026-05-04 17:28 | 48.13616 | -49.45549 | 37751 ft | 496 kts | 76° |
| 2026-05-04 17:29 | 48.20759 | -49.16382 | 37718 ft | 498 kts | 76° |
| 2026-05-04 17:31 | 48.26504 | -48.92646 | 37797 ft | 497 kts | 77° |
| 2026-05-04 17:32 | 48.32313 | -48.68375 | 37744 ft | 497 kts | 77° |
| 2026-05-04 17:33 | 48.36935 | -48.48872 | 37774 ft | 495 kts | 77° |
| 2026-05-04 17:34 | 48.41509 | -48.29395 | 37809 ft | 496 kts | 78° |
| 2026-05-04 17:35 | 48.47179 | -48.05000 | 37744 ft | 495 kts | 78° |
| 2026-05-04 17:36 | 48.49427 | -47.95254 | 37853 ft | 496 kts | 78° |
| 2026-05-04 17:36 | 48.50550 | -47.90360 | 37695 ft | 497 kts | 78° |
| 2026-05-04 17:36 | 48.51662 | -47.85527 | 37898 ft | 490 kts | 78° |
| 2026-05-04 17:36 | 48.52782 | -47.80628 | 37641 ft | 491 kts | 78° |
| 2026-05-04 17:37 | 48.53876 | -47.75842 | 37785 ft | 490 kts | 78° |
| 2026-05-04 17:37 | 48.56089 | -47.66108 | 37832 ft | 491 kts | 78° |
| 2026-05-04 17:38 | 48.58293 | -47.56375 | 37782 ft | 488 kts | 79° |
| 2026-05-04 17:38 | 48.60487 | -47.46641 | 37826 ft | 490 kts | 79° |
| 2026-05-04 17:38 | 48.61565 | -47.41842 | 37716 ft | 488 kts | 79° |
| 2026-05-04 17:39 | 48.63734 | -47.32153 | 37793 ft | 488 kts | 79° |
| 2026-05-04 17:39 | 48.65892 | -47.22469 | 37740 ft | 485 kts | 79° |
| 2026-05-04 17:40 | 48.66953 | -47.17704 | 37882 ft | 483 kts | 80° |
| 2026-05-04 17:40 | 48.68028 | -47.12839 | 37619 ft | 486 kts | 80° |
| 2026-05-04 17:40 | 48.69082 | -47.08087 | 37929 ft | 480 kts | 80° |
| 2026-05-04 17:40 | 48.70144 | -47.03262 | 37715 ft | 482 kts | 80° |
| 2026-05-04 17:41 | 48.72246 | -46.93698 | 37834 ft | 482 kts | 80° |
| 2026-05-04 17:41 | 48.74355 | -46.84051 | 37786 ft | 484 kts | 80° |
| 2026-05-04 17:42 | 48.76450 | -46.74429 | 37803 ft | 484 kts | 79° |
| 2026-05-04 17:42 | 48.78544 | -46.64769 | 37825 ft | 483 kts | 80° |
| 2026-05-04 17:43 | 48.80622 | -46.55143 | 37828 ft | 480 kts | 80° |
| 2026-05-04 17:43 | 48.82675 | -46.45575 | 37809 ft | 481 kts | 80° |
| 2026-05-04 17:44 | 48.84730 | -46.35962 | 37854 ft | 480 kts | 80° |
| 2026-05-04 17:44 | 48.86783 | -46.26309 | 37824 ft | 482 kts | 81° |
| 2026-05-04 17:45 | 48.88834 | -46.16627 | 37759 ft | 484 kts | 82° |
| 2026-05-04 17:45 | 48.90868 | -46.06972 | 37821 ft | 481 kts | 81° |
| 2026-05-04 17:46 | 48.92896 | -45.97306 | 37781 ft | 482 kts | 81° |
| 2026-05-04 17:46 | 48.94931 | -45.87558 | 37811 ft | 483 kts | 81° |
| 2026-05-04 17:47 | 48.96957 | -45.77792 | 37799 ft | 484 kts | 80° |
| 2026-05-04 17:47 | 48.98954 | -45.68132 | 37864 ft | 483 kts | 79° |
| 2026-05-04 17:48 | 49.00961 | -45.58379 | 37908 ft | 484 kts | 79° |
| 2026-05-04 17:48 | 49.02960 | -45.48607 | 37858 ft | 485 kts | 80° |
| 2026-05-04 17:49 | 49.04932 | -45.38923 | 37873 ft | 484 kts | 80° |
| 2026-05-04 17:49 | 49.06907 | -45.29169 | 37869 ft | 485 kts | 80° |
| 2026-05-04 17:50 | 49.08890 | -45.19336 | 37849 ft | 486 kts | 81° |
| 2026-05-04 17:50 | 49.10861 | -45.09528 | 37880 ft | 484 kts | 80° |
| 2026-05-04 17:51 | 49.12813 | -44.99757 | 37839 ft | 484 kts | 79° |
| 2026-05-04 17:51 | 49.14758 | -44.89957 | 37739 ft | 486 kts | 79° |
| 2026-05-04 17:52 | 49.15727 | -44.85060 | 37885 ft | 484 kts | 80° |
| 2026-05-04 17:52 | 49.16693 | -44.80168 | 38022 ft | 486 kts | 81° |
| 2026-05-04 17:52 | 49.17664 | -44.75241 | 37904 ft | 487 kts | 80° |
| 2026-05-04 17:52 | 49.18644 | -44.70263 | 37863 ft | 486 kts | 79° |
| 2026-05-04 17:53 | 49.20567 | -44.60445 | 37876 ft | 486 kts | 79° |
| 2026-05-04 17:53 | 49.22494 | -44.50541 | 37863 ft | 488 kts | 80° |
| 2026-05-04 17:54 | 49.24413 | -44.40652 | 37892 ft | 487 kts | 79° |
| 2026-05-04 17:54 | 49.26322 | -44.30739 | 37892 ft | 488 kts | 79° |
| 2026-05-04 17:55 | 49.28225 | -44.20818 | 37880 ft | 490 kts | 80° |
| 2026-05-04 17:55 | 49.30131 | -44.10833 | 37905 ft | 489 kts | 79° |
| 2026-05-04 17:56 | 49.32017 | -44.00892 | 37913 ft | 489 kts | 79° |
| 2026-05-04 17:56 | 49.33909 | -43.90878 | 37938 ft | 488 kts | 79° |
| 2026-05-04 17:57 | 49.35775 | -43.80927 | 37907 ft | 489 kts | 79° |
| 2026-05-04 17:57 | 49.37638 | -43.70966 | 37906 ft | 489 kts | 81° |
| 2026-05-04 17:58 | 49.39494 | -43.60951 | 37935 ft | 490 kts | 78° |
| 2026-05-04 17:58 | 49.41354 | -43.50892 | 37936 ft | 491 kts | 79° |
| 2026-05-04 17:59 | 49.43199 | -43.40854 | 37977 ft | 493 kts | 78° |
| 2026-05-04 18:00 | 49.45974 | -43.25653 | 37991 ft | 495 kts | 78° |
| 2026-05-04 18:00 | 49.47809 | -43.15534 | 37993 ft | 496 kts | 78° |
| 2026-05-04 18:01 | 49.49642 | -43.05370 | 37993 ft | 495 kts | 78° |
| 2026-05-04 18:01 | 49.51469 | -42.95177 | 38004 ft | 496 kts | 78° |
| 2026-05-04 18:02 | 49.54196 | -42.79874 | 38018 ft | 494 kts | 78° |
| 2026-05-04 18:02 | 49.55992 | -42.69708 | 38027 ft | 495 kts | 78° |
| 2026-05-04 18:03 | 49.57782 | -42.59530 | 38020 ft | 498 kts | 77° |
| 2026-05-04 18:03 | 49.59582 | -42.49229 | 38050 ft | 499 kts | 78° |
| 2026-05-04 18:04 | 49.61372 | -42.38927 | 38042 ft | 501 kts | 76° |
| 2026-05-04 18:05 | 49.64049 | -42.23412 | 38075 ft | 501 kts | 78° |
| 2026-05-04 18:05 | 49.65815 | -42.13099 | 38092 ft | 501 kts | 77° |
| 2026-05-04 18:06 | 49.68463 | -41.97525 | 38087 ft | 503 kts | 77° |
| 2026-05-04 18:06 | 49.70211 | -41.87163 | 38121 ft | 503 kts | 77° |
| 2026-05-04 18:07 | 49.71962 | -41.76724 | 38111 ft | 504 kts | 77° |
| 2026-05-04 18:07 | 49.73715 | -41.66210 | 38095 ft | 504 kts | 77° |
| 2026-05-04 18:08 | 49.75432 | -41.55844 | 38128 ft | 502 kts | 75° |
| 2026-05-04 18:08 | 49.77156 | -41.45382 | 38111 ft | 504 kts | 76° |
| 2026-05-04 18:09 | 49.80580 | -41.24393 | 38127 ft | 505 kts | 76° |
| 2026-05-04 18:10 | 49.82277 | -41.13897 | 38137 ft | 506 kts | 76° |
| 2026-05-04 18:10 | 49.83976 | -41.03318 | 38117 ft | 508 kts | 77° |
| 2026-05-04 18:11 | 49.85658 | -40.92780 | 38113 ft | 508 kts | 76° |
| 2026-05-04 18:11 | 49.87344 | -40.82149 | 38124 ft | 507 kts | 76° |
| 2026-05-04 18:12 | 49.89006 | -40.71595 | 38132 ft | 507 kts | 76° |
| 2026-05-04 18:12 | 49.90660 | -40.61029 | 38143 ft | 508 kts | 76° |
| 2026-05-04 18:13 | 49.92313 | -40.50402 | 38139 ft | 509 kts | 75° |
| 2026-05-04 18:14 | 49.94770 | -40.34478 | 38155 ft | 509 kts | 77° |
| 2026-05-04 18:14 | 49.96394 | -40.23862 | 38171 ft | 509 kts | 77° |
| 2026-05-04 18:15 | 49.99633 | -40.02501 | 38192 ft | 511 kts | 75° |
| 2026-05-04 18:16 | 50.01970 | -39.92123 | 38182 ft | 508 kts | 66° |
| 2026-05-04 18:16 | 50.04533 | -39.81984 | 38194 ft | 508 kts | 66° |
| 2026-05-04 18:17 | 50.08379 | -39.66655 | 38191 ft | 508 kts | 66° |
| 2026-05-04 18:18 | 50.12178 | -39.51400 | 38218 ft | 507 kts | 66° |
| 2026-05-04 18:18 | 50.14710 | -39.41166 | 38212 ft | 508 kts | 65° |
| 2026-05-04 18:19 | 50.18491 | -39.25791 | 38230 ft | 507 kts | 66° |
| 2026-05-04 18:19 | 50.20992 | -39.15563 | 38257 ft | 506 kts | 65° |
| 2026-05-04 18:20 | 50.23478 | -39.05341 | 38220 ft | 507 kts | 65° |
| 2026-05-04 18:20 | 50.25955 | -38.95112 | 38243 ft | 506 kts | 65° |
| 2026-05-04 18:21 | 50.28431 | -38.84836 | 38255 ft | 505 kts | 65° |
| 2026-05-04 18:21 | 50.30883 | -38.74614 | 38254 ft | 505 kts | 65° |
| 2026-05-04 18:22 | 50.33331 | -38.64357 | 38243 ft | 505 kts | 65° |
| 2026-05-04 18:22 | 50.35764 | -38.54113 | 38233 ft | 503 kts | 65° |
| 2026-05-04 18:23 | 50.38185 | -38.43874 | 38252 ft | 502 kts | 64° |
| 2026-05-04 18:23 | 50.40589 | -38.33658 | 38253 ft | 501 kts | 65° |
| 2026-05-04 18:24 | 50.42977 | -38.23461 | 38252 ft | 501 kts | 65° |
| 2026-05-04 18:24 | 50.45354 | -38.13263 | 38276 ft | 501 kts | 65° |
| 2026-05-04 18:25 | 50.47734 | -38.03003 | 38262 ft | 500 kts | 65° |
| 2026-05-04 18:25 | 50.50082 | -37.92836 | 38268 ft | 499 kts | 65° |
| 2026-05-04 18:26 | 50.52422 | -37.82646 | 38299 ft | 498 kts | 65° |
| 2026-05-04 18:26 | 50.54753 | -37.72451 | 38285 ft | 496 kts | 64° |
| 2026-05-04 18:27 | 50.57070 | -37.62270 | 38283 ft | 496 kts | 64° |
| 2026-05-04 18:27 | 50.59381 | -37.52063 | 38317 ft | 495 kts | 64° |
| 2026-05-04 18:28 | 50.61667 | -37.41922 | 38296 ft | 495 kts | 64° |
| 2026-05-04 18:28 | 50.63948 | -37.31747 | 38288 ft | 493 kts | 64° |
| 2026-05-04 18:29 | 50.66193 | -37.21687 | 38287 ft | 491 kts | 64° |
| 2026-05-04 18:29 | 50.68439 | -37.11583 | 38402 ft | 494 kts | 64° |
| 2026-05-04 18:30 | 50.70689 | -37.01398 | 38281 ft | 490 kts | 64° |
| 2026-05-04 18:30 | 50.71796 | -36.96368 | 38315 ft | 490 kts | 64° |
| 2026-05-04 18:31 | 50.74015 | -36.86258 | 38326 ft | 489 kts | 64° |
| 2026-05-04 18:31 | 50.76226 | -36.76124 | 38317 ft | 488 kts | 64° |
| 2026-05-04 18:32 | 50.78404 | -36.66098 | 38326 ft | 486 kts | 63° |
| 2026-05-04 18:32 | 50.79501 | -36.61033 | 38444 ft | 487 kts | 64° |
| 2026-05-04 18:32 | 50.80584 | -36.56018 | 38187 ft | 487 kts | 64° |
| 2026-05-04 18:32 | 50.81673 | -36.50958 | 38362 ft | 482 kts | 64° |
| 2026-05-04 18:33 | 50.82746 | -36.45964 | 38321 ft | 484 kts | 63° |
| 2026-05-04 18:33 | 50.84902 | -36.35896 | 38341 ft | 484 kts | 64° |
| 2026-05-04 18:34 | 50.87030 | -36.25901 | 38354 ft | 482 kts | 64° |
| 2026-05-04 18:34 | 50.89159 | -36.15852 | 38324 ft | 480 kts | 64° |
| 2026-05-04 18:35 | 50.91256 | -36.05909 | 38332 ft | 479 kts | 64° |
| 2026-05-04 18:35 | 50.93351 | -35.95923 | 38337 ft | 478 kts | 64° |
| 2026-05-04 18:36 | 50.95425 | -35.85997 | 38330 ft | 478 kts | 64° |
| 2026-05-04 18:36 | 50.97499 | -35.76012 | 38319 ft | 477 kts | 64° |
| 2026-05-04 18:37 | 50.99553 | -35.66079 | 38322 ft | 478 kts | 64° |
| 2026-05-04 18:37 | 51.01608 | -35.56090 | 38305 ft | 479 kts | 64° |
| 2026-05-04 18:38 | 51.03653 | -35.46094 | 38320 ft | 477 kts | 64° |
| 2026-05-04 18:38 | 51.05696 | -35.36062 | 38363 ft | 477 kts | 64° |
| 2026-05-04 18:39 | 51.07717 | -35.26083 | 38355 ft | 478 kts | 65° |
| 2026-05-04 18:39 | 51.09745 | -35.16020 | 38351 ft | 478 kts | 65° |
| 2026-05-04 18:40 | 51.11758 | -35.05981 | 38370 ft | 478 kts | 65° |
| 2026-05-04 18:40 | 51.13757 | -34.95955 | 38362 ft | 479 kts | 65° |
| 2026-05-04 18:41 | 51.15764 | -34.85842 | 38320 ft | 479 kts | 65° |
| 2026-05-04 18:41 | 51.17743 | -34.75809 | 38328 ft | 478 kts | 64° |
| 2026-05-04 18:42 | 51.19725 | -34.65716 | 38343 ft | 477 kts | 64° |
| 2026-05-04 18:42 | 51.21685 | -34.55680 | 38344 ft | 478 kts | 65° |
| 2026-05-04 18:43 | 51.23647 | -34.45581 | 38308 ft | 480 kts | 64° |
| 2026-05-04 18:43 | 51.25598 | -34.35486 | 38342 ft | 479 kts | 65° |
| 2026-05-04 18:44 | 51.27536 | -34.25405 | 38331 ft | 479 kts | 65° |
| 2026-05-04 18:44 | 51.29462 | -34.15323 | 38358 ft | 479 kts | 65° |
| 2026-05-04 18:45 | 51.31396 | -34.05155 | 38356 ft | 477 kts | 66° |
| 2026-05-04 18:45 | 51.33310 | -33.95029 | 38400 ft | 480 kts | 66° |
| 2026-05-04 18:46 | 51.35213 | -33.84914 | 38440 ft | 479 kts | 66° |
| 2026-05-04 18:46 | 51.37122 | -33.74709 | 38408 ft | 480 kts | 66° |
| 2026-05-04 18:47 | 51.39017 | -33.64522 | 38374 ft | 480 kts | 66° |
| 2026-05-04 18:47 | 51.40906 | -33.54314 | 38389 ft | 481 kts | 66° |
| 2026-05-04 18:48 | 51.42787 | -33.44083 | 38450 ft | 477 kts | 67° |
| 2026-05-04 18:48 | 51.44650 | -33.33903 | 38376 ft | 481 kts | 67° |
| 2026-05-04 18:49 | 51.46513 | -33.23658 | 38368 ft | 478 kts | 68° |
| 2026-05-04 18:49 | 51.48360 | -33.13445 | 38413 ft | 478 kts | 68° |
| 2026-05-04 18:50 | 51.50203 | -33.03206 | 38338 ft | 480 kts | 68° |
| 2026-05-04 18:50 | 51.52032 | -32.92979 | 38378 ft | 480 kts | 69° |
| 2026-05-04 18:51 | 51.53851 | -32.82755 | 38326 ft | 481 kts | 69° |
| 2026-05-04 18:51 | 51.54763 | -32.77599 | 38427 ft | 480 kts | 68° |
| 2026-05-04 18:51 | 51.55666 | -32.72488 | 38344 ft | 480 kts | 69° |
| 2026-05-04 18:52 | 51.57472 | -32.62209 | 38365 ft | 478 kts | 69° |
| 2026-05-04 18:52 | 51.59260 | -32.51984 | 38416 ft | 478 kts | 69° |
| 2026-05-04 18:53 | 51.61047 | -32.41701 | 38354 ft | 478 kts | 69° |
| 2026-05-04 18:53 | 51.62822 | -32.31424 | 38377 ft | 479 kts | 70° |
| 2026-05-04 18:54 | 51.64596 | -32.21104 | 38378 ft | 480 kts | 70° |
| 2026-05-04 18:54 | 51.66363 | -32.10749 | 38363 ft | 480 kts | 70° |
| 2026-05-04 18:55 | 51.68109 | -32.00464 | 38424 ft | 480 kts | 70° |
| 2026-05-04 18:55 | 51.70718 | -31.84979 | 38407 ft | 480 kts | 71° |
| 2026-05-04 18:56 | 51.72443 | -31.74664 | 38378 ft | 479 kts | 71° |
| 2026-05-04 18:56 | 51.74173 | -31.64256 | 38368 ft | 480 kts | 71° |
| 2026-05-04 18:57 | 51.75878 | -31.53934 | 38361 ft | 480 kts | 71° |
| 2026-05-04 18:57 | 51.77577 | -31.43585 | 38361 ft | 479 kts | 71° |
| 2026-05-04 18:58 | 51.79270 | -31.33213 | 38403 ft | 480 kts | 72° |
| 2026-05-04 18:58 | 51.80947 | -31.22867 | 38436 ft | 479 kts | 72° |
| 2026-05-04 18:59 | 51.82627 | -31.12443 | 38429 ft | 478 kts | 72° |
| 2026-05-04 18:59 | 51.84279 | -31.02132 | 38420 ft | 478 kts | 72° |
| 2026-05-04 19:00 | 51.85939 | -30.91707 | 38393 ft | 479 kts | 72° |
| 2026-05-04 19:00 | 51.87580 | -30.81328 | 38428 ft | 478 kts | 72° |
| 2026-05-04 19:01 | 51.89213 | -30.70944 | 38375 ft | 479 kts | 72° |
| 2026-05-04 19:01 | 51.90845 | -30.60494 | 38382 ft | 479 kts | 72° |
| 2026-05-04 19:02 | 51.92466 | -30.50053 | 38413 ft | 480 kts | 72° |
| 2026-05-04 19:02 | 51.94073 | -30.39635 | 38389 ft | 480 kts | 72° |
| 2026-05-04 19:03 | 51.95679 | -30.29146 | 38397 ft | 480 kts | 73° |
| 2026-05-04 19:03 | 51.97264 | -30.18733 | 38419 ft | 480 kts | 73° |
| 2026-05-04 19:04 | 51.98848 | -30.08258 | 38416 ft | 478 kts | 73° |
| 2026-05-04 19:04 | 52.00565 | -29.97936 | 38419 ft | 476 kts | 66° |
| 2026-05-04 19:05 | 52.03041 | -29.88040 | 38421 ft | 474 kts | 64° |
| 2026-05-04 19:05 | 52.05547 | -29.78129 | 38408 ft | 475 kts | 64° |
| 2026-05-04 19:06 | 52.08024 | -29.68265 | 38413 ft | 476 kts | 64° |
| 2026-05-04 19:06 | 52.10511 | -29.58305 | 38402 ft | 476 kts | 64° |
| 2026-05-04 19:07 | 52.12997 | -29.48296 | 38398 ft | 476 kts | 64° |
| 2026-05-04 19:07 | 52.15456 | -29.38341 | 38392 ft | 476 kts | 65° |
| 2026-05-04 19:08 | 52.17903 | -29.28384 | 38404 ft | 477 kts | 65° |
| 2026-05-04 19:08 | 52.20357 | -29.18348 | 38406 ft | 477 kts | 65° |
| 2026-05-04 19:09 | 52.22798 | -29.08313 | 38399 ft | 477 kts | 65° |
| 2026-05-04 19:09 | 52.25219 | -28.98320 | 38400 ft | 477 kts | 65° |
| 2026-05-04 19:10 | 52.27635 | -28.88293 | 38430 ft | 476 kts | 66° |
| 2026-05-04 19:10 | 52.30042 | -28.78259 | 38375 ft | 477 kts | 66° |
| 2026-05-04 19:11 | 52.32432 | -28.68248 | 38417 ft | 476 kts | 65° |
| 2026-05-04 19:11 | 52.34816 | -28.58216 | 38409 ft | 475 kts | 66° |
| 2026-05-04 19:12 | 52.38380 | -28.43132 | 38379 ft | 476 kts | 66° |
| 2026-05-04 19:13 | 52.40748 | -28.33049 | 38361 ft | 477 kts | 66° |
| 2026-05-04 19:13 | 52.43115 | -28.22923 | 38376 ft | 476 kts | 66° |
| 2026-05-04 19:14 | 52.45462 | -28.12834 | 38389 ft | 476 kts | 66° |
| 2026-05-04 19:14 | 52.47806 | -28.02710 | 38392 ft | 477 kts | 67° |
| 2026-05-04 19:15 | 52.50138 | -27.92591 | 38378 ft | 476 kts | 66° |
| 2026-05-04 19:15 | 52.52469 | -27.82430 | 38396 ft | 477 kts | 66° |
| 2026-05-04 19:16 | 52.54776 | -27.72323 | 38396 ft | 476 kts | 67° |
| 2026-05-04 19:16 | 52.57077 | -27.62194 | 38383 ft | 476 kts | 67° |
| 2026-05-04 19:17 | 52.59373 | -27.52038 | 38399 ft | 477 kts | 67° |
| 2026-05-04 19:17 | 52.61675 | -27.41806 | 38392 ft | 476 kts | 67° |
| 2026-05-04 19:18 | 52.63947 | -27.31658 | 38386 ft | 475 kts | 68° |
| 2026-05-04 19:18 | 52.66207 | -27.21518 | 38394 ft | 476 kts | 68° |
| 2026-05-04 19:19 | 52.68473 | -27.11301 | 38400 ft | 476 kts | 68° |
| 2026-05-04 19:19 | 52.70726 | -27.01088 | 38376 ft | 477 kts | 68° |
| 2026-05-04 19:20 | 52.72964 | -26.90894 | 38386 ft | 476 kts | 68° |
| 2026-05-04 19:20 | 52.75215 | -26.80594 | 38401 ft | 478 kts | 68° |
| 2026-05-04 19:21 | 52.77433 | -26.70395 | 38366 ft | 477 kts | 68° |
| 2026-05-04 19:21 | 52.79655 | -26.60124 | 38375 ft | 477 kts | 68° |
| 2026-05-04 19:22 | 52.81874 | -26.49812 | 38392 ft | 476 kts | 68° |
| 2026-05-04 19:22 | 52.84074 | -26.39543 | 38381 ft | 477 kts | 68° |
| 2026-05-04 19:23 | 52.86278 | -26.29202 | 38392 ft | 476 kts | 68° |
| 2026-05-04 19:23 | 52.88468 | -26.18875 | 38394 ft | 477 kts | 69° |
| 2026-05-04 19:24 | 52.90638 | -26.08591 | 38396 ft | 478 kts | 69° |
| 2026-05-04 19:24 | 52.92816 | -25.98210 | 38393 ft | 478 kts | 69° |
| 2026-05-04 19:25 | 52.94976 | -25.87869 | 38376 ft | 477 kts | 69° |
| 2026-05-04 19:25 | 52.97135 | -25.77474 | 38382 ft | 476 kts | 69° |
| 2026-05-04 19:26 | 52.99269 | -25.67148 | 38372 ft | 476 kts | 69° |
| 2026-05-04 19:26 | 53.01402 | -25.56776 | 38368 ft | 477 kts | 69° |
| 2026-05-04 19:27 | 53.03513 | -25.46455 | 38398 ft | 477 kts | 69° |
| 2026-05-04 19:27 | 53.05632 | -25.36041 | 38401 ft | 476 kts | 69° |
| 2026-05-04 19:28 | 53.07727 | -25.25687 | 38390 ft | 476 kts | 70° |
| 2026-05-04 19:28 | 53.09821 | -25.15288 | 38365 ft | 476 kts | 70° |
| 2026-05-04 19:29 | 53.11909 | -25.04866 | 38374 ft | 477 kts | 70° |
| 2026-05-04 19:29 | 53.13983 | -24.94454 | 38386 ft | 476 kts | 70° |
| 2026-05-04 19:30 | 53.16049 | -24.84031 | 38364 ft | 476 kts | 70° |
| 2026-05-04 19:30 | 53.18105 | -24.73596 | 38374 ft | 476 kts | 70° |
| 2026-05-04 19:31 | 53.20163 | -24.63098 | 38363 ft | 476 kts | 69° |
| 2026-05-04 19:31 | 53.22199 | -24.52657 | 38355 ft | 476 kts | 70° |
| 2026-05-04 19:32 | 53.24217 | -24.42253 | 38354 ft | 476 kts | 70° |
| 2026-05-04 19:32 | 53.26237 | -24.31779 | 38358 ft | 475 kts | 70° |
| 2026-05-04 19:33 | 53.28251 | -24.21280 | 38357 ft | 475 kts | 70° |
| 2026-05-04 19:33 | 53.30252 | -24.10793 | 38359 ft | 475 kts | 70° |
| 2026-05-04 19:34 | 53.32240 | -24.00312 | 38353 ft | 475 kts | 70° |
| 2026-05-04 19:34 | 53.34214 | -23.89851 | 38365 ft | 475 kts | 70° |
| 2026-05-04 19:35 | 53.36186 | -23.79341 | 38359 ft | 475 kts | 70° |
| 2026-05-04 19:35 | 53.38144 | -23.68847 | 38346 ft | 475 kts | 70° |
| 2026-05-04 19:36 | 53.40093 | -23.58341 | 38352 ft | 474 kts | 70° |
| 2026-05-04 19:36 | 53.42036 | -23.47811 | 38348 ft | 474 kts | 70° |
| 2026-05-04 19:37 | 53.43967 | -23.37287 | 38344 ft | 474 kts | 70° |
| 2026-05-04 19:37 | 53.45876 | -23.26817 | 38363 ft | 473 kts | 71° |
| 2026-05-04 19:38 | 53.47781 | -23.16314 | 38345 ft | 473 kts | 71° |
| 2026-05-04 19:38 | 53.49688 | -23.05740 | 38341 ft | 473 kts | 71° |
| 2026-05-04 19:39 | 53.51576 | -22.95211 | 38370 ft | 473 kts | 71° |
| 2026-05-04 19:39 | 53.53460 | -22.84639 | 38317 ft | 472 kts | 71° |
| 2026-05-04 19:40 | 53.55329 | -22.74091 | 38327 ft | 474 kts | 71° |
| 2026-05-04 19:40 | 53.57190 | -22.63529 | 38313 ft | 474 kts | 71° |
| 2026-05-04 19:41 | 53.59032 | -22.53016 | 38351 ft | 472 kts | 71° |
| 2026-05-04 19:41 | 53.60872 | -22.42444 | 38365 ft | 471 kts | 71° |
| 2026-05-04 19:42 | 53.62706 | -22.31853 | 38344 ft | 471 kts | 72° |
| 2026-05-04 19:42 | 53.64515 | -22.21336 | 38327 ft | 472 kts | 72° |
| 2026-05-04 19:43 | 53.66330 | -22.10725 | 38320 ft | 472 kts | 72° |
| 2026-05-04 19:43 | 53.68125 | -22.00168 | 38322 ft | 470 kts | 72° |
| 2026-05-04 19:44 | 53.69909 | -21.89609 | 38311 ft | 471 kts | 72° |
| 2026-05-04 19:44 | 53.71696 | -21.78971 | 38329 ft | 471 kts | 72° |
| 2026-05-04 19:45 | 53.73423 | -21.68623 | 38305 ft | 472 kts | 72° |
| 2026-05-04 19:45 | 53.75186 | -21.58000 | 38318 ft | 471 kts | 72° |
| 2026-05-04 19:46 | 53.76937 | -21.47382 | 38300 ft | 472 kts | 72° |
| 2026-05-04 19:46 | 53.78684 | -21.36723 | 38307 ft | 472 kts | 72° |
| 2026-05-04 19:47 | 53.80412 | -21.26113 | 38322 ft | 472 kts | 73° |
| 2026-05-04 19:47 | 53.82138 | -21.15447 | 38271 ft | 472 kts | 73° |
| 2026-05-04 19:48 | 53.83852 | -21.04797 | 38276 ft | 471 kts | 73° |
| 2026-05-04 19:48 | 53.85559 | -20.94117 | 38310 ft | 471 kts | 73° |
| 2026-05-04 19:49 | 53.87250 | -20.83461 | 38320 ft | 471 kts | 73° |
| 2026-05-04 19:49 | 53.88937 | -20.72776 | 38295 ft | 472 kts | 73° |
| 2026-05-04 19:50 | 53.90609 | -20.62111 | 38310 ft | 472 kts | 73° |
| 2026-05-04 19:50 | 53.92284 | -20.51361 | 38293 ft | 472 kts | 73° |
| 2026-05-04 19:51 | 53.93937 | -20.40680 | 38295 ft | 472 kts | 73° |
| 2026-05-04 19:51 | 53.95589 | -20.29935 | 38300 ft | 472 kts | 73° |
| 2026-05-04 19:52 | 53.97228 | -20.19205 | 38279 ft | 472 kts | 73° |
| 2026-05-04 19:52 | 53.98862 | -20.08432 | 38301 ft | 471 kts | 73° |
| 2026-05-04 19:53 | 54.00125 | -19.97568 | 38306 ft | 474 kts | 84° |
| 2026-05-04 19:53 | 54.00373 | -19.86444 | 38285 ft | 475 kts | 86° |
| 2026-05-04 19:54 | 54.00593 | -19.75207 | 38278 ft | 476 kts | 86° |
| 2026-05-04 19:54 | 54.00800 | -19.64041 | 38276 ft | 476 kts | 86° |
| 2026-05-04 19:55 | 54.00997 | -19.52811 | 38269 ft | 476 kts | 86° |
| 2026-05-04 19:55 | 54.01183 | -19.41644 | 38275 ft | 475 kts | 86° |
| 2026-05-04 19:56 | 54.01358 | -19.30487 | 38286 ft | 475 kts | 87° |
| 2026-05-04 19:56 | 54.01521 | -19.19384 | 38285 ft | 474 kts | 87° |
| 2026-05-04 19:57 | 54.01675 | -19.08204 | 38273 ft | 475 kts | 87° |
| 2026-05-04 19:57 | 54.01819 | -18.97054 | 38262 ft | 475 kts | 87° |
| 2026-05-04 19:58 | 54.01951 | -18.85891 | 38283 ft | 475 kts | 87° |
| 2026-05-04 19:58 | 54.02074 | -18.74670 | 38262 ft | 475 kts | 87° |
| 2026-05-04 19:59 | 54.02187 | -18.63490 | 38274 ft | 475 kts | 87° |
| 2026-05-04 19:59 | 54.02288 | -18.52319 | 38267 ft | 475 kts | 87° |
| 2026-05-04 20:00 | 54.02380 | -18.41131 | 38263 ft | 475 kts | 87° |
| 2026-05-04 20:00 | 54.02461 | -18.29953 | 38247 ft | 474 kts | 88° |
| 2026-05-04 20:01 | 54.02531 | -18.18845 | 38243 ft | 473 kts | 88° |
| 2026-05-04 20:01 | 54.02591 | -18.07708 | 38257 ft | 473 kts | 88° |
| 2026-05-04 20:02 | 54.02641 | -17.96580 | 38262 ft | 474 kts | 88° |
| 2026-05-04 20:02 | 54.02681 | -17.85406 | 38263 ft | 473 kts | 88° |
| 2026-05-04 20:03 | 54.02710 | -17.74236 | 38258 ft | 474 kts | 88° |
| 2026-05-04 20:03 | 54.02729 | -17.63075 | 38258 ft | 473 kts | 88° |
| 2026-05-04 20:04 | 54.02737 | -17.51976 | 38252 ft | 473 kts | 88° |
| 2026-05-04 20:04 | 54.02736 | -17.40837 | 38245 ft | 474 kts | 88° |
| 2026-05-04 20:05 | 54.02724 | -17.29654 | 38240 ft | 474 kts | 89° |
| 2026-05-04 20:05 | 54.02702 | -17.18500 | 38239 ft | 474 kts | 89° |
| 2026-05-04 20:06 | 54.02668 | -17.07364 | 38238 ft | 474 kts | 89° |
| 2026-05-04 20:06 | 54.02625 | -16.96169 | 38239 ft | 473 kts | 89° |
| 2026-05-04 20:07 | 54.02572 | -16.85074 | 38235 ft | 473 kts | 89° |
| 2026-05-04 20:07 | 54.02508 | -16.73907 | 38221 ft | 472 kts | 89° |
| 2026-05-04 20:08 | 54.02434 | -16.62835 | 38220 ft | 473 kts | 89° |
| 2026-05-04 20:08 | 54.02350 | -16.51660 | 38224 ft | 474 kts | 89° |
| 2026-05-04 20:09 | 54.02256 | -16.40562 | 38224 ft | 474 kts | 89° |
| 2026-05-04 20:09 | 54.02150 | -16.29402 | 38231 ft | 474 kts | 89° |
| 2026-05-04 20:10 | 54.02035 | -16.18227 | 38218 ft | 474 kts | 89° |
| 2026-05-04 20:10 | 54.01909 | -16.07091 | 38223 ft | 473 kts | 89° |
| 2026-05-04 20:11 | 54.01774 | -15.95954 | 38219 ft | 474 kts | 89° |
| 2026-05-04 20:11 | 54.01627 | -15.84764 | 38211 ft | 474 kts | 89° |
| 2026-05-04 20:12 | 54.01470 | -15.73621 | 38211 ft | 473 kts | 90° |
| 2026-05-04 20:12 | 54.01304 | -15.62538 | 38195 ft | 473 kts | 89° |
| 2026-05-04 20:13 | 54.01127 | -15.51380 | 38198 ft | 473 kts | 89° |
| 2026-05-04 20:13 | 54.00940 | -15.40249 | 38203 ft | 474 kts | 89° |
| 2026-05-04 20:14 | 54.00742 | -15.29141 | 38200 ft | 474 kts | 90° |
| 2026-05-04 20:14 | 54.00533 | -15.17968 | 38196 ft | 474 kts | 90° |
| 2026-05-04 20:15 | 54.00315 | -15.06848 | 38201 ft | 474 kts | 90° |
| 2026-05-04 20:15 | 54.00124 | -14.95654 | 38209 ft | 474 kts | 89° |
| 2026-05-04 20:16 | 54.00117 | -14.84532 | 38195 ft | 473 kts | 88° |
| 2026-05-04 20:16 | 54.00176 | -14.73367 | 38190 ft | 473 kts | 88° |
| 2026-05-04 20:17 | 54.00216 | -14.62247 | 38207 ft | 472 kts | 88° |
| 2026-05-04 20:17 | 54.00239 | -14.51136 | 38214 ft | 473 kts | 88° |
| 2026-05-04 20:18 | 54.00248 | -14.40030 | 38202 ft | 472 kts | 88° |
| 2026-05-04 20:18 | 54.00244 | -14.28845 | 38210 ft | 473 kts | 89° |
| 2026-05-04 20:19 | 54.00227 | -14.17752 | 38183 ft | 474 kts | 89° |
| 2026-05-04 20:19 | 54.00198 | -14.06609 | 38200 ft | 473 kts | 89° |
| 2026-05-04 20:20 | 53.99998 | -13.95477 | 38194 ft | 473 kts | 93° |
| 2026-05-04 20:20 | 53.99442 | -13.84353 | 38174 ft | 472 kts | 94° |
| 2026-05-04 20:21 | 53.98882 | -13.73228 | 38186 ft | 473 kts | 94° |
| 2026-05-04 20:21 | 53.98030 | -13.56639 | 38158 ft | 474 kts | 94° |
| 2026-05-04 20:22 | 53.97446 | -13.45512 | 38160 ft | 474 kts | 94° |
| 2026-05-04 20:22 | 53.96856 | -13.34442 | 38154 ft | 473 kts | 94° |
| 2026-05-04 20:23 | 53.96252 | -13.23316 | 38157 ft | 474 kts | 94° |
| 2026-05-04 20:23 | 53.95638 | -13.12172 | 38158 ft | 473 kts | 94° |
| 2026-05-04 20:24 | 53.95016 | -13.01089 | 38164 ft | 473 kts | 95° |
| 2026-05-04 20:24 | 53.94386 | -12.90032 | 38163 ft | 472 kts | 95° |
| 2026-05-04 20:25 | 53.93748 | -12.79011 | 38137 ft | 473 kts | 95° |
| 2026-05-04 20:25 | 53.93098 | -12.67959 | 38142 ft | 472 kts | 95° |
| 2026-05-04 20:26 | 53.92440 | -12.56945 | 38144 ft | 472 kts | 95° |
| 2026-05-04 20:26 | 53.91770 | -12.45906 | 38134 ft | 471 kts | 94° |
| 2026-05-04 20:27 | 53.91093 | -12.34909 | 38133 ft | 472 kts | 95° |
| 2026-05-04 20:27 | 53.90404 | -12.23898 | 38151 ft | 472 kts | 95° |
| 2026-05-04 20:28 | 53.89702 | -12.12844 | 38126 ft | 470 kts | 95° |
| 2026-05-04 20:28 | 53.88995 | -12.01859 | 38152 ft | 469 kts | 95° |
| 2026-05-04 20:29 | 53.88279 | -11.90910 | 38162 ft | 469 kts | 95° |
| 2026-05-04 20:29 | 53.87555 | -11.79994 | 38150 ft | 470 kts | 95° |
| 2026-05-04 20:30 | 53.86817 | -11.69009 | 38151 ft | 471 kts | 95° |
| 2026-05-04 20:30 | 53.86070 | -11.58056 | 38156 ft | 470 kts | 95° |
| 2026-05-04 20:31 | 53.85314 | -11.47118 | 38142 ft | 470 kts | 95° |
| 2026-05-04 20:31 | 53.84548 | -11.36191 | 38144 ft | 469 kts | 95° |
| 2026-05-04 20:32 | 53.83776 | -11.25311 | 38133 ft | 469 kts | 96° |
| 2026-05-04 20:32 | 53.82989 | -11.14372 | 38132 ft | 469 kts | 96° |
| 2026-05-04 20:33 | 53.82193 | -11.03447 | 38131 ft | 469 kts | 96° |
| 2026-05-04 20:33 | 53.81392 | -10.92592 | 38129 ft | 469 kts | 96° |
| 2026-05-04 20:34 | 53.80578 | -10.81704 | 38147 ft | 468 kts | 96° |
| 2026-05-04 20:34 | 53.79751 | -10.70786 | 38150 ft | 468 kts | 96° |
| 2026-05-04 20:35 | 53.78916 | -10.59892 | 38138 ft | 468 kts | 96° |
| 2026-05-04 20:35 | 53.78077 | -10.49075 | 38133 ft | 467 kts | 96° |
| 2026-05-04 20:36 | 53.77228 | -10.38259 | 38133 ft | 467 kts | 96° |
| 2026-05-04 20:36 | 53.76366 | -10.27407 | 38133 ft | 467 kts | 97° |
| 2026-05-04 20:37 | 53.75499 | -10.16628 | 38138 ft | 467 kts | 97° |
| 2026-05-04 20:37 | 53.74618 | -10.05797 | 38130 ft | 466 kts | 97° |
| 2026-05-04 20:38 | 53.73732 | -9.95015 | 38128 ft | 466 kts | 97° |
| 2026-05-04 20:38 | 53.72833 | -9.84206 | 38125 ft | 466 kts | 97° |
| 2026-05-04 20:39 | 53.71922 | -9.73384 | 38132 ft | 465 kts | 97° |
| 2026-05-04 20:39 | 53.71008 | -9.62628 | 38124 ft | 465 kts | 97° |
| 2026-05-04 20:40 | 53.70076 | -9.51797 | 38112 ft | 466 kts | 96° |
| 2026-05-04 20:40 | 53.69140 | -9.41043 | 38118 ft | 466 kts | 96° |
| 2026-05-04 20:41 | 53.68195 | -9.30282 | 38210 ft | 468 kts | 97° |
| 2026-05-04 20:41 | 53.67713 | -9.24854 | 38509 ft | 466 kts | 97° |
| 2026-05-04 20:41 | 53.67233 | -9.19463 | 38731 ft | 466 kts | 97° |
| 2026-05-04 20:42 | 53.66755 | -9.14128 | 38947 ft | 464 kts | 97° |
| 2026-05-04 20:42 | 53.66271 | -9.08751 | 39096 ft | 464 kts | 97° |
| 2026-05-04 20:42 | 53.65296 | -8.98001 | 39094 ft | 468 kts | 97° |
| 2026-05-04 20:43 | 53.64305 | -8.87195 | 39108 ft | 466 kts | 97° |
| 2026-05-04 20:43 | 53.63312 | -8.76459 | 39109 ft | 465 kts | 97° |
| 2026-05-04 20:44 | 53.62316 | -8.65817 | 39093 ft | 463 kts | 97° |
| 2026-05-04 20:44 | 53.61306 | -8.55134 | 39127 ft | 462 kts | 97° |
| 2026-05-04 20:45 | 53.60291 | -8.44501 | 39097 ft | 462 kts | 97° |
| 2026-05-04 20:45 | 53.59263 | -8.33835 | 39135 ft | 461 kts | 98° |
| 2026-05-04 20:46 | 53.58231 | -8.23224 | 39154 ft | 461 kts | 98° |
| 2026-05-04 20:46 | 53.57190 | -8.12635 | 39064 ft | 462 kts | 98° |
| 2026-05-04 20:47 | 53.56139 | -8.02042 | 39107 ft | 460 kts | 98° |
| 2026-05-04 20:47 | 53.55080 | -7.91460 | 39108 ft | 461 kts | 98° |
| 2026-05-04 20:48 | 53.54010 | -7.80872 | 39103 ft | 459 kts | 98° |
| 2026-05-04 20:48 | 53.52936 | -7.70343 | 39170 ft | 459 kts | 98° |
| 2026-05-04 20:49 | 53.52390 | -7.65028 | 39056 ft | 459 kts | 98° |
| 2026-05-04 20:49 | 53.51853 | -7.59823 | 39110 ft | 458 kts | 98° |
| 2026-05-04 20:49 | 53.50761 | -7.49313 | 39107 ft | 459 kts | 98° |
| 2026-05-04 20:50 | 53.49657 | -7.38781 | 39143 ft | 457 kts | 98° |
| 2026-05-04 20:50 | 53.48557 | -7.28375 | 39108 ft | 457 kts | 98° |
| 2026-05-04 20:51 | 53.47436 | -7.17870 | 39067 ft | 456 kts | 98° |
| 2026-05-04 20:51 | 53.46316 | -7.07458 | 39114 ft | 456 kts | 98° |
| 2026-05-04 20:52 | 53.45184 | -6.97027 | 39082 ft | 456 kts | 98° |
| 2026-05-04 20:52 | 53.44049 | -6.86663 | 39079 ft | 457 kts | 98° |
| 2026-05-04 20:53 | 53.42897 | -6.76222 | 39078 ft | 456 kts | 98° |
| 2026-05-04 20:53 | 53.41736 | -6.65794 | 39031 ft | 455 kts | 99° |
| 2026-05-04 20:54 | 53.40578 | -6.55477 | 39091 ft | 454 kts | 98° |
| 2026-05-04 20:54 | 53.39405 | -6.45119 | 39091 ft | 453 kts | 98° |
| 2026-05-04 20:55 | 53.38230 | -6.34821 | 39095 ft | 453 kts | 99° |
| 2026-05-04 20:55 | 53.37036 | -6.24445 | 39079 ft | 451 kts | 99° |
| 2026-05-04 20:56 | 53.35843 | -6.14158 | 39042 ft | 453 kts | 99° |
| 2026-05-04 20:56 | 53.34639 | -6.03858 | 39082 ft | 451 kts | 99° |
| 2026-05-04 20:57 | 53.33434 | -5.93635 | 39135 ft | 452 kts | 99° |
| 2026-05-04 20:57 | 53.32211 | -5.83333 | 39071 ft | 453 kts | 99° |
| 2026-05-04 20:58 | 53.31041 | -5.73559 | 39123 ft | 452 kts | 99° |
| 2026-05-04 20:58 | 53.29804 | -5.63299 | 39069 ft | 453 kts | 99° |
| 2026-05-04 20:59 | 53.28559 | -5.53048 | 39097 ft | 451 kts | 100° |
| 2026-05-04 20:59 | 53.27852 | -5.42712 | 39057 ft | 449 kts | 91° |
| 2026-05-04 21:00 | 53.27586 | -5.32302 | 39036 ft | 449 kts | 92° |
| 2026-05-04 21:00 | 53.27301 | -5.21957 | 39086 ft | 449 kts | 91° |
| 2026-05-04 21:01 | 53.26989 | -5.11542 | 39027 ft | 449 kts | 92° |
| 2026-05-04 21:01 | 53.26740 | -5.03730 | 39074 ft | 449 kts | 92° |
| 2026-05-04 21:02 | 53.26396 | -4.93291 | 39082 ft | 450 kts | 92° |
| 2026-05-04 21:02 | 53.26044 | -4.82962 | 39098 ft | 449 kts | 92° |
| 2026-05-04 21:03 | 53.25682 | -4.72562 | 39090 ft | 450 kts | 92° |
| 2026-05-04 21:03 | 53.25508 | -4.67318 | 38847 ft | 456 kts | 92° |
| 2026-05-04 21:03 | 53.25334 | -4.62078 | 38333 ft | 458 kts | 92° |
| 2026-05-04 21:04 | 53.25155 | -4.56816 | 37753 ft | 455 kts | 91° |
| 2026-05-04 21:04 | 53.24974 | -4.51544 | 37123 ft | 452 kts | 91° |
| 2026-05-04 21:04 | 53.24792 | -4.46342 | 36597 ft | 450 kts | 91° |
| 2026-05-04 21:04 | 53.24608 | -4.41127 | 36015 ft | 451 kts | 91° |
| 2026-05-04 21:05 | 53.24422 | -4.35937 | 35416 ft | 450 kts | 90° |
| 2026-05-04 21:05 | 53.24233 | -4.30735 | 34832 ft | 449 kts | 91° |
| 2026-05-04 21:05 | 53.24046 | -4.25628 | 34209 ft | 446 kts | 91° |
| 2026-05-04 21:05 | 53.23853 | -4.20449 | 33643 ft | 447 kts | 91° |
| 2026-05-04 21:06 | 53.23661 | -4.15339 | 33075 ft | 448 kts | 91° |
| 2026-05-04 21:06 | 53.23463 | -4.10135 | 32474 ft | 449 kts | 91° |
| 2026-05-04 21:06 | 53.23262 | -4.04914 | 31856 ft | 451 kts | 91° |
| 2026-05-04 21:06 | 53.23061 | -3.99753 | 31289 ft | 452 kts | 91° |
| 2026-05-04 21:07 | 53.22851 | -3.94501 | 30662 ft | 451 kts | 91° |
| 2026-05-04 21:07 | 53.22640 | -3.89357 | 30063 ft | 449 kts | 91° |
| 2026-05-04 21:07 | 53.22425 | -3.84180 | 29463 ft | 445 kts | 91° |
| 2026-05-04 21:07 | 53.22213 | -3.79111 | 28869 ft | 441 kts | 91° |
| 2026-05-04 21:08 | 53.21997 | -3.74001 | 28278 ft | 437 kts | 92° |
| 2026-05-04 21:08 | 53.21786 | -3.69051 | 27731 ft | 431 kts | 92° |
| 2026-05-04 21:08 | 53.21571 | -3.64079 | 27222 ft | 426 kts | 92° |
| 2026-05-04 21:08 | 53.21359 | -3.59220 | 27061 ft | 425 kts | 92° |
| 2026-05-04 21:09 | 53.21141 | -3.54286 | 27052 ft | 426 kts | 92° |
| 2026-05-04 21:09 | 53.20924 | -3.49404 | 27058 ft | 428 kts | 92° |
| 2026-05-04 21:09 | 53.20701 | -3.44419 | 27054 ft | 430 kts | 92° |
| 2026-05-04 21:09 | 53.20475 | -3.39438 | 27053 ft | 431 kts | 92° |
| 2026-05-04 21:10 | 53.20251 | -3.34545 | 27061 ft | 426 kts | 93° |
| 2026-05-04 21:10 | 53.20023 | -3.29636 | 26638 ft | 419 kts | 93° |
| 2026-05-04 21:10 | 53.19798 | -3.24831 | 25807 ft | 421 kts | 93° |
| 2026-05-04 21:10 | 53.19279 | -3.19998 | 25104 ft | 422 kts | 105° |
| 2026-05-04 21:11 | 53.18071 | -3.15612 | 24464 ft | 422 kts | 120° |
| 2026-05-04 21:11 | 53.16512 | -3.11473 | 23942 ft | 417 kts | 121° |
| 2026-05-04 21:11 | 53.14996 | -3.07456 | 23426 ft | 413 kts | 121° |
| 2026-05-04 21:11 | 53.13462 | -3.03397 | 22869 ft | 410 kts | 121° |
| 2026-05-04 21:12 | 53.11962 | -2.99437 | 22281 ft | 408 kts | 122° |
| 2026-05-04 21:12 | 53.10445 | -2.95439 | 21787 ft | 405 kts | 122° |
| 2026-05-04 21:12 | 53.08965 | -2.91548 | 21227 ft | 403 kts | 122° |
| 2026-05-04 21:12 | 53.07423 | -2.87666 | 20777 ft | 399 kts | 126° |
| 2026-05-04 21:13 | 53.05808 | -2.83999 | 20300 ft | 397 kts | 127° |
| 2026-05-04 21:13 | 53.04174 | -2.80318 | 19764 ft | 396 kts | 127° |
| 2026-05-04 21:13 | 53.02536 | -2.76629 | 19256 ft | 394 kts | 127° |
| 2026-05-04 21:13 | 53.00928 | -2.73017 | 18751 ft | 392 kts | 127° |
| 2026-05-04 21:14 | 52.99301 | -2.69367 | 18268 ft | 391 kts | 127° |
| 2026-05-04 21:14 | 52.97688 | -2.65755 | 17842 ft | 388 kts | 127° |
| 2026-05-04 21:14 | 52.96079 | -2.62158 | 17458 ft | 386 kts | 127° |
| 2026-05-04 21:14 | 52.94498 | -2.58630 | 17040 ft | 382 kts | 127° |
| 2026-05-04 21:15 | 52.92916 | -2.55103 | 16656 ft | 378 kts | 127° |
| 2026-05-04 21:15 | 52.91367 | -2.51657 | 16440 ft | 372 kts | 127° |
| 2026-05-04 21:15 | 52.89829 | -2.48240 | 16307 ft | 364 kts | 127° |
| 2026-05-04 21:15 | 52.88350 | -2.44959 | 16243 ft | 357 kts | 127° |
| 2026-05-04 21:16 | 52.86870 | -2.41681 | 16216 ft | 348 kts | 127° |
| 2026-05-04 21:16 | 52.85432 | -2.38499 | 16141 ft | 339 kts | 127° |
| 2026-05-04 21:16 | 52.84049 | -2.35444 | 16168 ft | 331 kts | 127° |
| 2026-05-04 21:16 | 52.82671 | -2.32406 | 16157 ft | 324 kts | 128° |
| 2026-05-04 21:17 | 52.81258 | -2.29508 | 16144 ft | 316 kts | 132° |
| 2026-05-04 21:17 | 52.79824 | -2.26767 | 16137 ft | 310 kts | 132° |
| 2026-05-04 21:17 | 52.78430 | -2.24105 | 16142 ft | 305 kts | 132° |
| 2026-05-04 21:17 | 52.77026 | -2.21424 | 16148 ft | 300 kts | 132° |
| 2026-05-04 21:18 | 52.75646 | -2.18793 | 15483 ft | 314 kts | 132° |
| 2026-05-04 21:18 | 52.74159 | -2.15962 | 14344 ft | 333 kts | 131° |
| 2026-05-04 21:18 | 52.72642 | -2.13077 | 13326 ft | 341 kts | 131° |
| 2026-05-04 21:18 | 52.71066 | -2.10079 | 12295 ft | 345 kts | 131° |
| 2026-05-04 21:19 | 52.69514 | -2.07052 | 11295 ft | 346 kts | 129° |
| 2026-05-04 21:19 | 52.68059 | -2.04018 | 10656 ft | 332 kts | 128° |
| 2026-05-04 21:19 | 52.66648 | -2.01067 | 10191 ft | 315 kts | 128° |
| 2026-05-04 21:19 | 52.65343 | -1.98342 | 9879 ft | 296 kts | 128° |
| 2026-05-04 21:20 | 52.63986 | -1.95869 | 9595 ft | 287 kts | 141° |
| 2026-05-04 21:20 | 52.62384 | -1.93903 | 9310 ft | 290 kts | 144° |
| 2026-05-04 21:20 | 52.60567 | -1.92397 | 9027 ft | 287 kts | 168° |
| 2026-05-04 21:20 | 52.58619 | -1.92434 | 8473 ft | 279 kts | 198° |
| 2026-05-04 21:21 | 52.56962 | -1.94035 | 7718 ft | 277 kts | 229° |
| 2026-05-04 21:21 | 52.56068 | -1.96752 | 7068 ft | 274 kts | 260° |
| 2026-05-04 21:21 | 52.56176 | -1.99822 | 6578 ft | 269 kts | 291° |
| 2026-05-04 21:21 | 52.57209 | -2.02258 | 6132 ft | 264 kts | 322° |
| 2026-05-04 21:22 | 52.58880 | -2.03431 | 5656 ft | 261 kts | 354° |
| 2026-05-04 21:22 | 52.60630 | -2.02956 | 5203 ft | 260 kts | 25° |
| 2026-05-04 21:22 | 52.61975 | -2.00981 | 4697 ft | 263 kts | 57° |
| 2026-05-04 21:22 | 52.62466 | -1.98137 | 4221 ft | 265 kts | 89° |
| 2026-05-04 21:23 | 52.61966 | -1.95214 | 3760 ft | 265 kts | 116° |
| 2026-05-04 21:23 | 52.60918 | -1.92727 | 3339 ft | 262 kts | 136° |
| 2026-05-04 21:23 | 52.59525 | -1.90854 | 3304 ft | 244 kts | 141° |
| 2026-05-04 21:23 | 52.58208 | -1.89203 | 3069 ft | 236 kts | 142° |
| 2026-05-04 21:24 | 52.56860 | -1.87631 | 2795 ft | 233 kts | 143° |
| 2026-05-04 21:24 | 52.55524 | -1.86118 | 2491 ft | 233 kts | 144° |
| 2026-05-04 21:24 | 52.54210 | -1.84643 | 2200 ft | 224 kts | 144° |
| 2026-05-04 21:24 | 52.52962 | -1.83248 | 1874 ft | 202 kts | 144° |
| 2026-05-04 21:25 | 52.51881 | -1.82047 | 1668 ft | 172 kts | 143° |
| 2026-05-04 21:25 | 52.50940 | -1.81005 | 1445 ft | 149 kts | 145° |
| 2026-05-04 21:25 | 52.50157 | -1.80137 | 1301 ft | 126 kts | 143° |
| 2026-05-04 21:25 | 52.49387 | -1.79269 | 1038 ft | 139 kts | 144° |
| 2026-05-04 21:26 | 52.48598 | -1.78401 | 837 ft | 132 kts | 142° |
| 2026-05-04 21:26 | 52.47838 | -1.77541 | 664 ft | 130 kts | 143° |
| 2026-05-04 21:26 | 52.47094 | -1.76706 | 534 ft | 130 kts | 144° |
| 2026-05-04 21:26 | 52.46352 | -1.75879 | 364 ft | 126 kts | 144° |
| 2026-05-04 21:27 | 52.45677 | -1.75123 | 317 ft | 98 kts | 146° |
| 2026-05-04 21:27 | 52.45289 | -1.74693 | 328 ft | 30 kts | 142° |
| 2026-05-04 21:27 | 52.45203 | -1.74665 | 331 ft | 5 kts | 200° |
| 2026-05-04 21:27 | 52.45195 | -1.74670 | 332 ft | 0 kts | 202° |
| 2026-05-04 21:28 | 52.45185 | -1.74676 | 332 ft | 4 kts | 198° |
| 2026-05-04 21:28 | 52.45146 | -1.74694 | 333 ft | 6 kts | 196° |
| 2026-05-04 21:28 | 52.45097 | -1.74719 | 335 ft | 8 kts | 196° |
| 2026-05-04 21:29 | 52.45060 | -1.74744 | 337 ft | 2 kts | 230° |
| 2026-05-04 21:29 | 52.45064 | -1.74807 | 338 ft | 8 kts | 294° |
| 2026-05-04 21:29 | 52.45063 | -1.74884 | 340 ft | 6 kts | 236° |
| 2026-05-04 21:29 | 52.45036 | -1.74952 | 341 ft | 8 kts | 239° |
| 2026-05-04 21:30 | 52.45039 | -1.75007 | 341 ft | 6 kts | 323° |
| 2026-05-04 21:30 | 52.45060 | -1.75062 | 339 ft | 3 kts | 254° |
| 2026-05-04 21:30 | 52.45053 | -1.75084 | 339 ft | 0 kts | 235° |